sensor_id;sensor_type;location;lat;lon;timestamp;pressure;altitude;pressure_sealevel;temperature;humidity
79589;BME280;69067;51.930;4.492;2023-08-06T00:00:27;100346.09;;;25.09;45.52
79589;BME280;69067;51.930;4.492;2023-08-06T00:02:53;100336.88;;;25.10;45.20
79589;BME280;69067;51.930;4.492;2023-08-06T00:05:18;100340.78;;;25.14;44.99
79589;BME280;69067;51.930;4.492;2023-08-06T00:07:50;100338.06;;;25.14;45.12
79589;BME280;69067;51.930;4.492;2023-08-06T00:10:17;100342.44;;;25.15;44.96
79589;BME280;69067;51.930;4.492;2023-08-06T00:12:43;100330.72;;;25.15;44.74
79589;BME280;69067;51.930;4.492;2023-08-06T00:15:10;100338.50;;;25.11;44.92
79589;BME280;69067;51.930;4.492;2023-08-06T00:17:37;100332.00;;;25.12;45.05
79589;BME280;69067;51.930;4.492;2023-08-06T00:20:04;100335.56;;;25.13;45.28
79589;BME280;69067;51.930;4.492;2023-08-06T00:22:36;100338.06;;;25.14;45.49
79589;BME280;69067;51.930;4.492;2023-08-06T00:25:04;100340.56;;;25.16;45.20
79589;BME280;69067;51.930;4.492;2023-08-06T00:27:30;100341.84;;;25.13;45.45
79589;BME280;69067;51.930;4.492;2023-08-06T00:29:56;100346.22;;;25.14;45.19
79589;BME280;69067;51.930;4.492;2023-08-06T00:32:22;100347.91;;;25.15;45.12
79589;BME280;69067;51.930;4.492;2023-08-06T00:34:47;100338.50;;;25.11;45.06
79589;BME280;69067;51.930;4.492;2023-08-06T00:37:18;100346.22;;;25.14;44.83
79589;BME280;69067;51.930;4.492;2023-08-06T00:39:44;100347.91;;;25.15;44.96
79589;BME280;69067;51.930;4.492;2023-08-06T00:42:11;100338.88;;;25.15;45.12
79589;BME280;69067;51.930;4.492;2023-08-06T00:44:38;100338.06;;;25.14;45.63
79589;BME280;69067;51.930;4.492;2023-08-06T00:47:06;100343.28;;;25.16;45.21
79589;BME280;69067;51.930;4.492;2023-08-06T00:49:35;100342.66;;;25.14;45.74
79589;BME280;69067;51.930;4.492;2023-08-06T00:52:03;100343.72;;;25.13;45.41
79589;BME280;69067;51.930;4.492;2023-08-06T00:54:31;100338.28;;;25.13;45.72
79589;BME280;69067;51.930;4.492;2023-08-06T00:56:59;100345.16;;;25.15;45.33
79589;BME280;69067;51.930;4.492;2023-08-06T00:59:27;100346.44;;;25.13;45.42
79589;BME280;69067;51.930;4.492;2023-08-06T01:01:54;100346.00;;;25.16;45.82
79589;BME280;69067;51.930;4.492;2023-08-06T01:04:20;100342.22;;;25.17;46.00
79589;BME280;69067;51.930;4.492;2023-08-06T01:06:48;100335.56;;;25.13;46.06
79589;BME280;69067;51.930;4.492;2023-08-06T01:09:45;100343.03;;;25.17;45.25
79589;BME280;69067;51.930;4.492;2023-08-06T01:12:34;100342.22;;;25.17;45.21
79589;BME280;69067;51.930;4.492;2023-08-06T01:15:07;100346.84;;;25.16;45.42
79589;BME280;69067;51.930;4.492;2023-08-06T01:17:40;100346.84;;;25.16;45.38
79589;BME280;69067;51.930;4.492;2023-08-06T01:20:06;100346.22;;;25.14;45.73
79589;BME280;69067;51.930;4.492;2023-08-06T01:22:32;100349.56;;;25.16;44.97
79589;BME280;69067;51.930;4.492;2023-08-06T01:24:58;100348.94;;;25.14;45.43
79589;BME280;69067;51.930;4.492;2023-08-06T01:27:36;100350.63;;;25.15;46.20
79589;BME280;69067;51.930;4.492;2023-08-06T01:30:12;100351.06;;;25.12;45.59
79589;BME280;69067;51.930;4.492;2023-08-06T01:32:44;100352.13;;;25.11;45.61
79589;BME280;69067;51.930;4.492;2023-08-06T01:35:15;100352.72;;;25.13;45.53
79589;BME280;69067;51.930;4.492;2023-08-06T01:37:42;100344.78;;;25.11;45.91
79589;BME280;69067;51.930;4.492;2023-08-06T01:40:13;100351.69;;;25.14;45.88
79589;BME280;69067;51.930;4.492;2023-08-06T01:42:39;100357.97;;;25.15;45.57
79589;BME280;69067;51.930;4.492;2023-08-06T01:45:09;100356.91;;;25.16;45.98
79589;BME280;69067;51.930;4.492;2023-08-06T01:47:35;100352.97;;;25.11;45.93
79589;BME280;69067;51.930;4.492;2023-08-06T01:50:01;100356.91;;;25.16;45.43
79589;BME280;69067;51.930;4.492;2023-08-06T01:52:28;100365.66;;;25.18;45.93
79589;BME280;69067;51.930;4.492;2023-08-06T01:54:54;100362.34;;;25.16;45.90
79589;BME280;69067;51.930;4.492;2023-08-06T01:57:20;100364.03;;;25.17;45.74
79589;BME280;69067;51.930;4.492;2023-08-06T01:59:46;100370.28;;;25.17;45.77
79589;BME280;69067;51.930;4.492;2023-08-06T02:02:12;100376.56;;;25.18;46.02
79589;BME280;69067;51.930;4.492;2023-08-06T02:04:38;100374.09;;;25.16;45.73
79589;BME280;69067;51.930;4.492;2023-08-06T02:07:04;100377.38;;;25.18;45.55
79589;BME280;69067;51.930;4.492;2023-08-06T02:09:29;100378.94;;;25.14;46.01
79589;BME280;69067;51.930;4.492;2023-08-06T02:11:55;100382.00;;;25.18;45.85
79589;BME280;69067;51.930;4.492;2023-08-06T02:14:21;100382.47;;;25.15;45.67
79589;BME280;69067;51.930;4.492;2023-08-06T02:16:47;100389.34;;;25.17;45.96
79589;BME280;69067;51.930;4.492;2023-08-06T02:19:12;100381.16;;;25.17;45.60
79589;BME280;69067;51.930;4.492;2023-08-06T02:21:38;100391.00;;;25.18;45.85
79589;BME280;69067;51.930;4.492;2023-08-06T02:24:04;100385.34;;;25.20;45.79
79589;BME280;69067;51.930;4.492;2023-08-06T02:26:30;100391.00;;;25.18;45.87
79589;BME280;69067;51.930;4.492;2023-08-06T02:28:55;100382.84;;;25.18;45.82
79589;BME280;69067;51.930;4.492;2023-08-06T02:31:21;100382.84;;;25.18;45.85
79589;BME280;69067;51.930;4.492;2023-08-06T02:33:47;100385.56;;;25.18;46.17
79589;BME280;69067;51.930;4.492;2023-08-06T02:36:13;100388.28;;;25.18;45.87
79589;BME280;69067;51.930;4.492;2023-08-06T02:38:38;100391.00;;;25.18;46.03
79589;BME280;69067;51.930;4.492;2023-08-06T02:41:04;100383.31;;;25.15;45.93
79589;BME280;69067;51.930;4.492;2023-08-06T02:43:30;100388.28;;;25.18;46.06
79589;BME280;69067;51.930;4.492;2023-08-06T02:46:00;100386.16;;;25.20;45.84
79589;BME280;69067;51.930;4.492;2023-08-06T02:48:26;100386.63;;;25.17;46.09
79589;BME280;69067;51.930;4.492;2023-08-06T02:50:52;100388.28;;;25.18;46.32
79589;BME280;69067;51.930;4.492;2023-08-06T02:53:17;100394.34;;;25.20;46.18
79589;BME280;69067;51.930;4.492;2023-08-06T02:55:47;100394.13;;;25.22;46.08
79589;BME280;69067;51.930;4.492;2023-08-06T02:58:14;100390.78;;;25.20;46.31
79589;BME280;69067;51.930;4.492;2023-08-06T03:00:41;100392.69;;;25.19;46.10
79589;BME280;69067;51.930;4.492;2023-08-06T03:03:07;100384.97;;;25.16;45.76
79589;BME280;69067;51.930;4.492;2023-08-06T03:05:33;100391.63;;;25.20;46.41
79589;BME280;69067;51.930;4.492;2023-08-06T03:07:58;100388.91;;;25.20;46.53
79589;BME280;69067;51.930;4.492;2023-08-06T03:10:24;100387.84;;;25.21;46.44
79589;BME280;69067;51.930;4.492;2023-08-06T03:12:50;100384.72;;;25.18;46.00
79589;BME280;69067;51.930;4.492;2023-08-06T03:15:16;100392.47;;;25.21;46.00
79589;BME280;69067;51.930;4.492;2023-08-06T03:17:41;100394.56;;;25.19;46.40
79589;BME280;69067;51.930;4.492;2023-08-06T03:20:07;100389.50;;;25.22;45.85
79589;BME280;69067;51.930;4.492;2023-08-06T03:22:33;100380.72;;;25.20;46.41
79589;BME280;69067;51.930;4.492;2023-08-06T03:24:59;100385.72;;;25.23;46.47
79589;BME280;69067;51.930;4.492;2023-08-06T03:27:25;100386.56;;;25.24;46.21
79589;BME280;69067;51.930;4.492;2023-08-06T03:29:51;100394.97;;;25.22;46.37
79589;BME280;69067;51.930;4.492;2023-08-06T03:32:16;100400.19;;;25.24;46.25
79589;BME280;69067;51.930;4.492;2023-08-06T03:34:42;100399.34;;;25.23;46.01
79589;BME280;69067;51.930;4.492;2023-08-06T03:37:08;100407.53;;;25.23;45.94
79589;BME280;69067;51.930;4.492;2023-08-06T03:39:34;100400.41;;;25.22;46.69
79589;BME280;69067;51.930;4.492;2023-08-06T03:41:59;100405.84;;;25.22;46.16
79589;BME280;69067;51.930;4.492;2023-08-06T03:44:25;100420.06;;;25.24;46.13
79589;BME280;69067;51.930;4.492;2023-08-06T03:46:52;100418.44;;;25.23;46.12
79589;BME280;69067;51.930;4.492;2023-08-06T03:49:18;100412.59;;;25.20;45.99
79589;BME280;69067;51.930;4.492;2023-08-06T03:51:44;100423.88;;;25.23;45.69
79589;BME280;69067;51.930;4.492;2023-08-06T03:54:09;100424.72;;;25.24;45.83
79589;BME280;69067;51.930;4.492;2023-08-06T03:56:35;100419.72;;;25.21;46.13
79589;BME280;69067;51.930;4.492;2023-08-06T03:59:01;100425.78;;;25.23;45.86
79589;BME280;69067;51.930;4.492;2023-08-06T04:01:27;100430.38;;;25.22;45.93
79589;BME280;69067;51.930;4.492;2023-08-06T04:03:52;100435.22;;;25.20;45.70
79589;BME280;69067;51.930;4.492;2023-08-06T04:06:18;100432.28;;;25.22;45.71
79589;BME280;69067;51.930;4.492;2023-08-06T04:08:44;100435.00;;;25.22;45.92
79589;BME280;69067;51.930;4.492;2023-08-06T04:11:10;100447.31;;;25.24;45.76
79589;BME280;69067;51.930;4.492;2023-08-06T04:13:35;100446.50;;;25.24;45.53
79589;BME280;69067;51.930;4.492;2023-08-06T04:16:04;100452.78;;;25.24;45.38
79589;BME280;69067;51.930;4.492;2023-08-06T04:18:30;100453.03;;;25.23;45.65
79589;BME280;69067;51.930;4.492;2023-08-06T04:20:56;100448.63;;;25.22;45.65
79589;BME280;69067;51.930;4.492;2023-08-06T04:23:23;100448.84;;;25.20;45.51
79589;BME280;69067;51.930;4.492;2023-08-06T04:25:49;100457.03;;;25.20;45.94
79589;BME280;69067;51.930;4.492;2023-08-06T04:28:15;100466.88;;;25.21;45.44
79589;BME280;69067;51.930;4.492;2023-08-06T04:30:41;100473.00;;;25.17;45.64
79589;BME280;69067;51.930;4.492;2023-08-06T04:33:06;100474.44;;;25.19;45.90
79589;BME280;69067;51.930;4.492;2023-08-06T04:35:32;100468.63;;;25.16;45.79
79589;BME280;69067;51.930;4.492;2023-08-06T04:37:58;100481.19;;;25.17;46.12
79589;BME280;69067;51.930;4.492;2023-08-06T04:40:24;100478.91;;;25.14;45.80
79589;BME280;69067;51.930;4.492;2023-08-06T04:42:49;100475.13;;;25.15;45.96
79589;BME280;69067;51.930;4.492;2023-08-06T04:45:15;100477.84;;;25.15;45.53
79589;BME280;69067;51.930;4.492;2023-08-06T04:47:41;100490.16;;;25.17;45.63
79589;BME280;69067;51.930;4.492;2023-08-06T04:50:07;100485.81;;;25.16;46.04
79589;BME280;69067;51.930;4.492;2023-08-06T04:52:32;100498.97;;;25.19;45.34
79589;BME280;69067;51.930;4.492;2023-08-06T04:54:58;100497.06;;;25.20;45.72
79589;BME280;69067;51.930;4.492;2023-08-06T04:57:24;100499.16;;;25.18;45.46
79589;BME280;69067;51.930;4.492;2023-08-06T04:59:50;100506.91;;;25.21;45.67
79589;BME280;69067;51.930;4.492;2023-08-06T05:02:16;100507.75;;;25.21;45.37
79589;BME280;69067;51.930;4.492;2023-08-06T05:04:41;100508.81;;;25.20;45.35
79589;BME280;69067;51.930;4.492;2023-08-06T05:07:07;100507.34;;;25.18;45.34
79589;BME280;69067;51.930;4.492;2023-08-06T05:09:33;100524.09;;;25.21;45.65
79589;BME280;69067;51.930;4.492;2023-08-06T05:12:03;100515.09;;;25.21;45.31
79589;BME280;69067;51.930;4.492;2023-08-06T05:14:30;100531.22;;;25.22;45.59
79589;BME280;69067;51.930;4.492;2023-08-06T05:16:55;100528.72;;;25.21;45.92
79589;BME280;69067;51.930;4.492;2023-08-06T05:19:21;100525.38;;;25.19;45.54
79589;BME280;69067;51.930;4.492;2023-08-06T05:21:47;100522.72;;;25.12;45.20
79589;BME280;69067;51.930;4.492;2023-08-06T05:24:12;100529.16;;;25.18;45.12
79589;BME280;69067;51.930;4.492;2023-08-06T05:26:38;100527.72;;;25.15;45.41
79589;BME280;69067;51.930;4.492;2023-08-06T05:29:04;100540.66;;;25.20;45.03
79589;BME280;69067;51.930;4.492;2023-08-06T05:31:30;100548.84;;;25.20;45.32
79589;BME280;69067;51.930;4.492;2023-08-06T05:33:55;100551.56;;;25.20;44.84
79589;BME280;69067;51.930;4.492;2023-08-06T05:36:21;100560.56;;;25.20;45.21
79589;BME280;69067;51.930;4.492;2023-08-06T05:38:47;100549.69;;;25.20;45.22
79589;BME280;69067;51.930;4.492;2023-08-06T05:41:13;100565.19;;;25.20;45.47
79589;BME280;69067;51.930;4.492;2023-08-06T05:43:39;100558.91;;;25.19;45.53
79589;BME280;69067;51.930;4.492;2023-08-06T05:46:04;100558.53;;;25.16;45.23
79589;BME280;69067;51.930;4.492;2023-08-06T05:48:30;100564.34;;;25.19;45.27
79589;BME280;69067;51.930;4.492;2023-08-06T05:50:57;100568.75;;;25.20;45.39
79589;BME280;69067;51.930;4.492;2023-08-06T05:53:24;100573.59;;;25.18;45.50
79589;BME280;69067;51.930;4.492;2023-08-06T05:55:50;100585.31;;;25.19;45.57
79589;BME280;69067;51.930;4.492;2023-08-06T05:58:16;100582.38;;;25.20;44.86
79589;BME280;69067;51.930;4.492;2023-08-06T06:00:42;100580.72;;;25.19;45.58
79589;BME280;69067;51.930;4.492;2023-08-06T06:03:08;100581.53;;;25.20;45.23
79589;BME280;69067;51.930;4.492;2023-08-06T06:05:34;100587.81;;;25.20;45.49
79589;BME280;69067;51.930;4.492;2023-08-06T06:08:03;100587.81;;;25.20;45.28
79589;BME280;69067;51.930;4.492;2023-08-06T06:10:29;100597.06;;;25.19;45.27
79589;BME280;69067;51.930;4.492;2023-08-06T06:12:54;100593.72;;;25.17;45.08
79589;BME280;69067;51.930;4.492;2023-08-06T06:15:20;100595.38;;;25.18;45.46
79589;BME280;69067;51.930;4.492;2023-08-06T06:17:46;100598.34;;;25.17;45.45
79589;BME280;69067;51.930;4.492;2023-08-06T06:20:11;100594.78;;;25.16;45.15
79589;BME280;69067;51.930;4.492;2023-08-06T06:22:37;100609.00;;;25.18;45.26
79589;BME280;69067;51.930;4.492;2023-08-06T06:25:04;100603.34;;;25.20;44.87
79589;BME280;69067;51.930;4.492;2023-08-06T06:27:30;100606.28;;;25.18;45.92
79589;BME280;69067;51.930;4.492;2023-08-06T06:29:55;100606.28;;;25.18;45.66
79589;BME280;69067;51.930;4.492;2023-08-06T06:32:22;100612.19;;;25.15;44.95
79589;BME280;69067;51.930;4.492;2023-08-06T06:34:47;100622.41;;;25.20;45.20
79589;BME280;69067;51.930;4.492;2023-08-06T06:37:13;100605.69;;;25.16;45.20
79589;BME280;69067;51.930;4.492;2023-08-06T06:39:39;100617.81;;;25.20;44.92
79589;BME280;69067;51.930;4.492;2023-08-06T06:42:05;100621.81;;;25.18;44.95
79589;BME280;69067;51.930;4.492;2023-08-06T06:44:31;100618.03;;;25.19;45.40
79589;BME280;69067;51.930;4.492;2023-08-06T06:46:56;100620.97;;;25.17;44.78
79589;BME280;69067;51.930;4.492;2023-08-06T06:49:22;100624.78;;;25.16;44.90
79589;BME280;69067;51.930;4.492;2023-08-06T06:51:48;100632.13;;;25.16;44.80
79589;BME280;69067;51.930;4.492;2023-08-06T06:54:13;100634.00;;;25.15;45.07
79589;BME280;69067;51.930;4.492;2023-08-06T06:56:39;100632.94;;;25.16;45.32
79589;BME280;69067;51.930;4.492;2023-08-06T06:59:05;100636.72;;;25.15;45.41
79589;BME280;69067;51.930;4.492;2023-08-06T07:01:31;100640.28;;;25.16;45.50
79589;BME280;69067;51.930;4.492;2023-08-06T07:03:56;100640.28;;;25.16;45.20
79589;BME280;69067;51.930;4.492;2023-08-06T07:06:22;100643.00;;;25.16;45.34
79589;BME280;69067;51.930;4.492;2023-08-06T07:08:48;100646.31;;;25.18;45.14
79589;BME280;69067;51.930;4.492;2023-08-06T07:11:14;100645.50;;;25.17;45.37
79589;BME280;69067;51.930;4.492;2023-08-06T07:13:40;100644.06;;;25.15;44.69
79589;BME280;69067;51.930;4.492;2023-08-06T07:16:05;100646.56;;;25.16;44.97
79589;BME280;69067;51.930;4.492;2023-08-06T07:18:31;100656.38;;;25.17;45.26
79589;BME280;69067;51.930;4.492;2023-08-06T07:20:57;100658.31;;;25.17;45.00
79589;BME280;69067;51.930;4.492;2023-08-06T07:23:25;100652.25;;;25.15;45.30
79589;BME280;69067;51.930;4.492;2023-08-06T07:25:52;100661.84;;;25.17;44.81
79589;BME280;69067;51.930;4.492;2023-08-06T07:28:18;100655.59;;;25.17;44.99
79589;BME280;69067;51.930;4.492;2023-08-06T07:30:45;100656.22;;;25.12;45.05
79589;BME280;69067;51.930;4.492;2023-08-06T07:33:11;100663.97;;;25.15;45.45
79589;BME280;69067;51.930;4.492;2023-08-06T07:35:38;100656.00;;;25.14;44.91
79589;BME280;69067;51.930;4.492;2023-08-06T07:38:04;100668.38;;;25.16;44.90
79589;BME280;69067;51.930;4.492;2023-08-06T07:40:30;100667.28;;;25.17;45.14
79589;BME280;69067;51.930;4.492;2023-08-06T07:42:55;100662.53;;;25.13;44.88
79589;BME280;69067;51.930;4.492;2023-08-06T07:45:21;100668.38;;;25.16;45.00
79589;BME280;69067;51.930;4.492;2023-08-06T07:47:47;100667.28;;;25.17;44.79
79589;BME280;69067;51.930;4.492;2023-08-06T07:50:13;100670.25;;;25.16;45.45
79589;BME280;69067;51.930;4.492;2023-08-06T07:52:39;100670.25;;;25.16;44.41
79589;BME280;69067;51.930;4.492;2023-08-06T07:55:05;100658.75;;;25.14;44.83
79589;BME280;69067;51.930;4.492;2023-08-06T07:57:32;100672.75;;;25.17;45.01
79589;BME280;69067;51.930;4.492;2023-08-06T07:59:59;100667.53;;;25.16;44.80
79589;BME280;69067;51.930;4.492;2023-08-06T08:02:25;100669.44;;;25.15;45.12
79589;BME280;69067;51.930;4.492;2023-08-06T08:04:50;100670.47;;;25.14;45.28
79589;BME280;69067;51.930;4.492;2023-08-06T08:07:16;100664.56;;;25.17;44.92
79589;BME280;69067;51.930;4.492;2023-08-06T08:09:42;100669.22;;;25.17;44.89
79589;BME280;69067;51.930;4.492;2023-08-06T08:12:08;100669.22;;;25.17;45.29
79589;BME280;69067;51.930;4.492;2023-08-06T08:14:33;100673.81;;;25.16;44.70
79589;BME280;69067;51.930;4.492;2023-08-06T08:17:05;100674.41;;;25.18;44.56
79589;BME280;69067;51.930;4.492;2023-08-06T08:19:32;100671.69;;;25.18;44.83
79589;BME280;69067;51.930;4.492;2023-08-06T08:21:58;100669.22;;;25.17;44.27
79589;BME280;69067;51.930;4.492;2023-08-06T08:24:25;100675.47;;;25.17;44.54
79589;BME280;69067;51.930;4.492;2023-08-06T08:26:52;100677.59;;;25.15;44.31
79589;BME280;69067;51.930;4.492;2023-08-06T08:29:19;100683.06;;;25.15;44.53
79589;BME280;69067;51.930;4.492;2023-08-06T08:31:47;100680.75;;;25.12;44.62
79589;BME280;69067;51.930;4.492;2023-08-06T08:34:18;100683.06;;;25.15;44.44
79589;BME280;69067;51.930;4.492;2023-08-06T08:36:44;100687.03;;;25.13;44.54
79589;BME280;69067;51.930;4.492;2023-08-06T08:39:13;100684.09;;;25.14;44.36
79589;BME280;69067;51.930;4.492;2023-08-06T08:41:39;100679.91;;;25.11;44.20
79589;BME280;69067;51.930;4.492;2023-08-06T08:44:09;100698.34;;;25.16;44.44
79589;BME280;69067;51.930;4.492;2023-08-06T08:46:37;100701.28;;;25.15;44.70
79589;BME280;69067;51.930;4.492;2023-08-06T08:49:04;100696.50;;;25.10;44.30
79589;BME280;69067;51.930;4.492;2023-08-06T08:51:31;100702.97;;;25.16;44.43
79589;BME280;69067;51.930;4.492;2023-08-06T08:53:58;100698.56;;;25.15;44.10
79589;BME280;69067;51.930;4.492;2023-08-06T08:56:24;100690.59;;;25.13;44.34
79589;BME280;69067;51.930;4.492;2023-08-06T08:58:50;100695.44;;;25.11;44.37
79589;BME280;69067;51.930;4.492;2023-08-06T09:01:20;100714.50;;;25.11;44.18
79589;BME280;69067;51.930;4.492;2023-08-06T09:03:48;100715.97;;;25.14;44.24
79589;BME280;69067;51.930;4.492;2023-08-06T09:06:15;100702.56;;;25.12;43.96
79589;BME280;69067;51.930;4.492;2023-08-06T09:08:50;100701.97;;;25.10;44.60
79589;BME280;69067;51.930;4.492;2023-08-06T09:11:21;100709.06;;;25.11;44.49
79589;BME280;69067;51.930;4.492;2023-08-06T09:13:47;100713.91;;;25.09;43.72
79589;BME280;69067;51.930;4.492;2023-08-06T09:16:13;100712.25;;;25.08;44.32
79589;BME280;69067;51.930;4.492;2023-08-06T09:18:39;100718.06;;;25.11;44.19
79589;BME280;69067;51.930;4.492;2023-08-06T09:21:05;100719.13;;;25.10;43.81
79589;BME280;69067;51.930;4.492;2023-08-06T09:23:31;100715.34;;;25.11;44.13
79589;BME280;69067;51.930;4.492;2023-08-06T09:25:59;100717.84;;;25.13;44.17
79589;BME280;69067;51.930;4.492;2023-08-06T09:28:37;100718.69;;;25.14;43.88
79589;BME280;69067;51.930;4.492;2023-08-06T09:31:08;100721.03;;;25.10;43.86
79589;BME280;69067;51.930;4.492;2023-08-06T09:33:36;100730.00;;;25.10;43.65
79589;BME280;69067;51.930;4.492;2023-08-06T09:36:12;100728.75;;;25.13;43.64
79589;BME280;69067;51.930;4.492;2023-08-06T09:38:39;100739.66;;;25.13;43.38
79589;BME280;69067;51.930;4.492;2023-08-06T09:41:06;100732.31;;;25.14;43.59
79589;BME280;69067;51.930;4.492;2023-08-06T09:43:40;100736.09;;;25.13;43.32
79589;BME280;69067;51.930;4.492;2023-08-06T09:46:13;100740.09;;;25.10;43.29
79589;BME280;69067;51.930;4.492;2023-08-06T09:48:40;100740.69;;;25.12;43.36
79589;BME280;69067;51.930;4.492;2023-08-06T09:51:08;100741.16;;;25.09;43.42
79589;BME280;69067;51.930;4.492;2023-08-06T09:53:34;100747.00;;;25.13;43.38
79589;BME280;69067;51.930;4.492;2023-08-06T09:56:01;100757.69;;;25.14;43.59
79589;BME280;69067;51.930;4.492;2023-08-06T09:58:29;100752.44;;;25.13;43.19
79589;BME280;69067;51.930;4.492;2023-08-06T10:00:56;100756.00;;;25.13;43.44
79589;BME280;69067;51.930;4.492;2023-08-06T10:03:24;100756.88;;;25.07;43.15
79589;BME280;69067;51.930;4.492;2023-08-06T10:05:50;100768.78;;;25.13;43.48
79589;BME280;69067;51.930;4.492;2023-08-06T10:08:16;100775.06;;;25.13;42.62
79589;BME280;69067;51.930;4.492;2023-08-06T10:10:44;100770.47;;;25.14;42.73
79589;BME280;69067;51.930;4.492;2023-08-06T10:13:11;100764.00;;;25.08;42.91
79589;BME280;69067;51.930;4.492;2023-08-06T10:15:39;100767.56;;;25.08;42.85
79589;BME280;69067;51.930;4.492;2023-08-06T10:18:06;100771.28;;;25.14;42.92
79589;BME280;69067;51.930;4.492;2023-08-06T10:20:36;100769.00;;;25.11;43.16
79589;BME280;69067;51.930;4.492;2023-08-06T10:23:06;100775.91;;;25.14;42.71
79589;BME280;69067;51.930;4.492;2023-08-06T10:25:40;100780.53;;;25.13;43.25
79589;BME280;69067;51.930;4.492;2023-08-06T10:28:09;100781.56;;;25.12;42.61
79589;BME280;69067;51.930;4.492;2023-08-06T10:30:45;100771.97;;;25.09;42.54
79589;BME280;69067;51.930;4.492;2023-08-06T10:33:12;100785.34;;;25.11;43.00
79589;BME280;69067;51.930;4.492;2023-08-06T10:35:45;100775.53;;;25.10;42.96
79589;BME280;69067;51.930;4.492;2023-08-06T10:38:20;100780.97;;;25.10;42.26
79589;BME280;69067;51.930;4.492;2023-08-06T10:43:26;100773.19;;;25.14;42.67
79589;BME280;69067;51.930;4.492;2023-08-06T10:45:53;100779.47;;;25.14;42.51
79589;BME280;69067;51.930;4.492;2023-08-06T10:51:03;100775.91;;;25.14;42.60
79589;BME280;69067;51.930;4.492;2023-08-06T10:53:32;100784.94;;;25.14;42.10
79589;BME280;69067;51.930;4.492;2023-08-06T10:55:58;100797.72;;;25.14;42.38
79589;BME280;69067;51.930;4.492;2023-08-06T10:58:24;100790.38;;;25.14;42.50
79589;BME280;69067;51.930;4.492;2023-08-06T11:00:49;100791.41;;;25.13;42.29
79589;BME280;69067;51.930;4.492;2023-08-06T11:03:15;100782.88;;;25.09;41.86
79589;BME280;69067;51.930;4.492;2023-08-06T11:05:48;100790.38;;;25.14;42.61
79589;BME280;69067;51.930;4.492;2023-08-06T11:08:28;100785.75;;;25.15;42.22
79589;BME280;69067;51.930;4.492;2023-08-06T11:11:10;100792.47;;;25.12;42.35
79589;BME280;69067;51.930;4.492;2023-08-06T11:13:39;100796.44;;;25.16;41.83
79589;BME280;69067;51.930;4.492;2023-08-06T11:16:06;100803.53;;;25.17;42.15
79589;BME280;69067;51.930;4.492;2023-08-06T11:18:33;100794.56;;;25.17;42.27
79589;BME280;69067;51.930;4.492;2023-08-06T11:21:00;100808.41;;;25.15;41.71
79589;BME280;69067;51.930;4.492;2023-08-06T11:23:27;100793.72;;;25.16;41.69
79589;BME280;69067;51.930;4.492;2023-08-06T11:25:57;100796.44;;;25.16;41.84
79589;BME280;69067;51.930;4.492;2023-08-06T11:28:24;100804.00;;;25.14;42.05
79589;BME280;69067;51.930;4.492;2023-08-06T11:30:51;100807.56;;;25.15;41.91
79589;BME280;69067;51.930;4.492;2023-08-06T11:33:24;100805.88;;;25.14;42.08
79589;BME280;69067;51.930;4.492;2023-08-06T11:35:58;100795.00;;;25.14;42.05
79589;BME280;69067;51.930;4.492;2023-08-06T11:38:26;100799.19;;;25.16;41.89
79589;BME280;69067;51.930;4.492;2023-08-06T11:40:54;100797.50;;;25.15;42.40
79589;BME280;69067;51.930;4.492;2023-08-06T11:43:21;100809.69;;;25.06;42.21
79589;BME280;69067;51.930;4.492;2023-08-06T11:45:49;100816.00;;;25.06;42.46
79589;BME280;69067;51.930;4.492;2023-08-06T11:48:16;100815.59;;;25.03;42.51
79589;BME280;69067;51.930;4.492;2023-08-06T11:50:42;100823.50;;;25.11;42.41
79589;BME280;69067;51.930;4.492;2023-08-06T11:53:12;100825.16;;;25.12;42.39
79589;BME280;69067;51.930;4.492;2023-08-06T11:55:39;100834.19;;;25.13;42.56
79589;BME280;69067;51.930;4.492;2023-08-06T11:58:05;100824.34;;;25.11;42.17
79589;BME280;69067;51.930;4.492;2023-08-06T12:00:32;100815.13;;;25.13;42.73
79589;BME280;69067;51.930;4.492;2023-08-06T12:02:58;100823.13;;;25.07;42.30
79589;BME280;69067;51.930;4.492;2023-08-06T12:05:29;100820.19;;;25.09;42.88
79589;BME280;69067;51.930;4.492;2023-08-06T12:07:57;100823.75;;;25.09;42.70
79589;BME280;69067;51.930;4.492;2023-08-06T12:10:26;100816.63;;;25.08;42.87
79589;BME280;69067;51.930;4.492;2023-08-06T12:12:53;100830.63;;;25.12;42.39
79589;BME280;69067;51.930;4.492;2023-08-06T12:15:20;100827.72;;;25.07;42.57
79589;BME280;69067;51.930;4.492;2023-08-06T12:17:46;100820.78;;;25.11;42.27
79589;BME280;69067;51.930;4.492;2023-08-06T12:20:12;100823.25;;;25.19;42.01
79589;BME280;69067;51.930;4.492;2023-08-06T12:22:38;100838.34;;;25.22;42.19
79589;BME280;69067;51.930;4.492;2023-08-06T12:25:10;100834.94;;;25.26;41.64
79589;BME280;69067;51.930;4.492;2023-08-06T12:27:41;100844.75;;;25.34;41.57
79589;BME280;69067;51.930;4.492;2023-08-06T12:30:08;100843.47;;;25.36;41.83
79589;BME280;69067;51.930;4.492;2023-08-06T12:32:35;100840.13;;;25.34;41.30
79589;BME280;69067;51.930;4.492;2023-08-06T12:35:01;100847.38;;;25.47;40.99
79589;BME280;69067;51.930;4.492;2023-08-06T12:37:27;100845.50;;;25.47;41.64
79589;BME280;69067;51.930;4.492;2023-08-06T12:39:53;100845.22;;;25.56;41.04
79589;BME280;69067;51.930;4.492;2023-08-06T12:42:18;100850.69;;;25.56;40.29
79589;BME280;69067;51.930;4.492;2023-08-06T12:44:45;100845.41;;;25.61;41.15
79589;BME280;69067;51.930;4.492;2023-08-06T12:47:10;100846.81;;;25.70;41.00
79589;BME280;69067;51.930;4.492;2023-08-06T12:49:36;100859.69;;;25.63;40.69
79589;BME280;69067;51.930;4.492;2023-08-06T12:52:02;100863.66;;;25.60;41.00
79589;BME280;69067;51.930;4.492;2023-08-06T12:54:31;100871.84;;;25.60;40.94